Pagrindinis puslapis
METAR-TAF:

METAR-TAF

Oro uostai :

Florešas, Azorai, Portugalija

platuma: 39-27N, ilguma: 031-08W, Aukštis: 28 m

Dabartinis oras

Ataskaita buvo paskelbta 38 minutes, ne 19:00 UTC
Vėjas 8 kt iš Šiaurės/Šiaurės Rytų
Temperatūra 16°C
Drėgmė 68%
Slėgis 1022 hPa
Matomumas 10 km arba daugiau
Išsisklaidę debesys ne aukštis 3000 ft

METAR: LPFL 221900Z 02008KT 9999 SCT030 16/10 Q1022

Laikas: 19:38 (19:38 UTC)

Prognozė

Ataskaita buvo paskelbta 5 valandos ir 38 minutes, ne 14:00 UTC
Prognozė galioja nuo 22 metu 15 UTC su 22 metu 24 UTC
Vėjas 8 kt iš Šiaurės
Matomumas 10 km arba daugiau
Mažai debesys ne aukštis 2500 ft
Laikinai
nuo 22 metu 15 UTC su 22 metu 24 UTC
Išsisklaidę debesys ne aukštis 1800 ft
Su prošvaistėmis ne aukštis 3000 ft

TAF: LPFL 221400Z 2215/2224 01008KT 9999 FEW025 TEMPO 2215/2224 SCT018 BKN030

Orai ataskaitas ir orų prognozės (METAR, TAF).

turimą stotys yra geltonos ir raudonos taškus žemėlapyje.

Perkelti pele per norėdami pamatyti stoties vardą.

Tada spustelėkite, norėdami matyti oro stebėjimo ir prognozės.

Norėdami pakeisti žemėlapį: spustelėkite ant žalios mygtukų su juodo kryžiaus žemyn,; žalią mygtuką su brūkšneliu, jei norite nutolinti; arba žalių rodyklių gretimoms žemėlapius.


METAR-TAF: